Time;durP1;ratioP1;P1;durP2;ratioP2;P2;SDS_P1;SDS_P2;PMS_P1;PMS_P2;Temp;Humidity;BMP_temperature;BMP_pressure;BME280_temperature;BME280_humidity;BME280_pressure;Samples;Min_cycle;Max_cycle;Signal;HPM_P1;HPM_P2
2020/12/05 00:01:15;;;;;;;;;;;;;;;;;;5052819;28;19909;-69
2020/12/05 00:03:41;;;;;;;;;;;;;;;;;;5052686;28;20308;-68
2020/12/05 00:06:07;;;;;;;;;;;;;;;;;;5034969;28;19909;-69
2020/12/05 00:08:33;;;;;;;;;;;;;;;;;;5033783;28;19909;-68
2020/12/05 00:10:59;;;;;;;;;;;;;;;;;;5032563;28;19961;-70
2020/12/05 00:13:25;;;;;;;;;;;;;;;;;;5049098;28;19952;-68
2020/12/05 00:15:50;;;;;;;;;;;;;;;;;;5033997;28;19909;-70
2020/12/05 00:18:18;;;;;;;;;;;;;;;;;;5032303;28;19914;-69
2020/12/05 00:20:44;;;;;;;;;;;;;;;;;;5032576;28;19916;-70
2020/12/05 00:23:10;;;;;;;;;;;;;;;;;;5033727;28;20297;-70
2020/12/05 00:25:36;;;;;;;;;;;;;;;;;;5033502;28;19909;-69
2020/12/05 00:28:01;;;;;;;;;;;;;;;;;;5033817;28;19917;-70
2020/12/05 00:30:28;;;;;;;;;;;;;;;;;;5033992;28;19952;-70
2020/12/05 00:32:54;;;;;;;;;;;;;;;;;;5033493;28;19913;-70
2020/12/05 00:35:20;;;;;;;;;;;;;;;;;;5032791;28;19916;-70
2020/12/05 00:37:46;;;;;;;;;;;;;;;;;;5033070;28;20015;-70
2020/12/05 00:40:12;;;;;;;;;;;;;;;;;;5033184;28;20372;-70
2020/12/05 00:42:38;;;;;;;;;;;;;;;;;;5032899;28;19909;-70
2020/12/05 00:45:04;;;;;;;;;;;;;;;;;;5032055;28;19909;-70
2020/12/05 00:47:30;;;;;;;;;;;;;;;;;;5032017;28;19913;-69
2020/12/05 00:49:56;;;;;;;;;;;;;;;;;;5031949;28;19909;-70
2020/12/05 00:52:21;;;;;;;;;;;;;;;;;;5033107;28;19967;-70
2020/12/05 00:54:47;;;;;;;;;;;;;;;;;;5032940;28;20024;-70
2020/12/05 00:57:13;;;;;;;;;;;;;;;;;;5031785;28;19909;-70
2020/12/05 00:59:39;;;;;;;;;;;;;;;;;;5033003;28;19905;-70
2020/12/05 01:02:05;;;;;;;;;;;;;;;;;;5031555;28;20004;-70
2020/12/05 01:04:31;;;;;;;;;;;;;;;;;;5031988;28;20424;-70
2020/12/05 01:06:57;;;;;;;;;;;;;;;;;;5032091;28;19960;-69
2020/12/05 01:09:23;;;;;;;;;;;;;;;;;;5031333;28;19995;-70
2020/12/05 01:11:49;;;;;;;;;;;;;;;;;;5032873;28;19913;-70
2020/12/05 01:14:15;;;;;;;;;;;;;;;;;;5032779;28;20003;-70
2020/12/05 01:16:41;;;;;;;;;;;;;;;;;;5032893;28;20066;-70
2020/12/05 01:19:07;;;;;;;;;;;;;;;;;;5032604;28;19948;-70
2020/12/05 01:21:33;;;;;;;;;;;;;;;;;;5032476;28;19944;-69
2020/12/05 01:23:59;;;;;;;;;;;;;;;;;;5032614;28;20391;-70
2020/12/05 01:26:25;;;;;;;;;;;;;;;;;;5032995;28;19951;-70
2020/12/05 01:28:51;;;;;;;;;;;;;;;;;;5032463;28;19909;-70
2020/12/05 01:31:16;;;;;;;;;;;;;;;;;;5032670;28;19967;-70
2020/12/05 01:33:42;;;;;;;;;;;;;;;;;;5032597;28;19995;-70
2020/12/05 01:36:08;;;;;;;;;;;;;;;;;;5033341;28;20448;-69
2020/12/05 01:38:34;;;;;;;;;;;;;;;;;;5029877;28;19992;-69
2020/12/05 01:41:00;;;;;;;;;;;;;;;;;;5032535;28;20023;-68
2020/12/05 01:43:26;;;;;;;;;;;;;;;;;;5032501;28;20424;-69
2020/12/05 01:45:52;;;;;;;;;;;;;;;;;;5032548;28;19951;-69
2020/12/05 01:48:18;;;;;;;;;;;;;;;;;;5032051;28;19967;-69
2020/12/05 01:50:44;;;;;;;;;;;;;;;;;;5031533;28;20453;-68
2020/12/05 01:53:10;;;;;;;;;;;;;;;;;;5030500;28;20012;-68
2020/12/05 01:55:36;;;;;;;;;;;;;;;;;;5031546;28;20038;-68
2020/12/05 01:58:02;;;;;;;;;;;;;;;;;;5030928;28;20359;-68
2020/12/05 02:00:28;;;;;;;;;;;;;;;;;;5030909;28;20004;-68
2020/12/05 02:02:54;;;;;;;;;;;;;;;;;;5030498;28;20000;-69
2020/12/05 02:05:19;;;;;;;;;;;;;;;;;;5030680;28;19909;-68
2020/12/05 02:07:45;;;;;;;;;;;;;;;;;;5029066;28;19909;-68
2020/12/05 02:10:11;;;;;;;;;;;;;;;;;;5030374;28;20015;-68
2020/12/05 02:12:37;;;;;;;;;;;;;;;;;;5031867;28;19935;-68
2020/12/05 02:15:03;;;;;;;;;;;;;;;;;;5031724;28;19909;-70
2020/12/05 02:17:29;;;;;;;;;;;;;;;;;;5030354;28;19920;-69
2020/12/05 02:19:55;;;;;;;;;;;;;;;;;;5031833;28;20373;-69
2020/12/05 02:22:21;;;;;;;;;;;;;;;;;;5030528;28;20288;-70
2020/12/05 02:24:47;;;;;;;;;;;;;;;;;;5029972;28;19948;-69
2020/12/05 02:27:13;;;;;;;;;;;;;;;;;;5030945;28;19945;-69
2020/12/05 02:29:39;;;;;;;;;;;;;;;;;;5031311;28;19956;-69
2020/12/05 02:32:05;;;;;;;;;;;;;;;;;;5031358;28;20019;-69
2020/12/05 02:34:31;;;;;;;;;;;;;;;;;;5031489;28;19941;-70
2020/12/05 02:36:57;;;;;;;;;;;;;;;;;;5031603;28;20412;-69
2020/12/05 02:39:23;;;;;;;;;;;;;;;;;;5029763;28;19909;-70
2020/12/05 02:41:49;;;;;;;;;;;;;;;;;;5042691;28;19909;-68
2020/12/05 02:44:15;;;;;;;;;;;;;;;;;;5036863;28;19916;-68
2020/12/05 02:46:40;;;;;;;;;;;;;;;;;;5031422;28;19909;-68
2020/12/05 02:49:06;;;;;;;;;;;;;;;;;;5031385;28;20365;-68
2020/12/05 02:51:32;;;;;;;;;;;;;;;;;;5031606;28;19964;-68
2020/12/05 02:53:58;;;;;;;;;;;;;;;;;;5031568;28;20008;-68
2020/12/05 02:56:24;;;;;;;;;;;;;;;;;;5031418;28;19917;-68
2020/12/05 02:58:50;;;;;;;;;;;;;;;;;;5031003;28;19913;-68
2020/12/05 03:01:16;;;;;;;;;;;;;;;;;;5031415;28;19955;-68
2020/12/05 03:03:42;;;;;;;;;;;;;;;;;;5034223;28;20020;-69
2020/12/05 03:06:08;;;;;;;;;;;;;;;;;;5034167;28;19924;-68
2020/12/05 03:08:34;;;;;;;;;;;;;;;;;;5033521;28;20439;-69
2020/12/05 03:11:00;;;;;;;;;;;;;;;;;;5034129;28;20004;-69
2020/12/05 03:13:27;;;;;;;;;;;;;;;;;;5035184;28;19916;-68
2020/12/05 03:15:52;;;;;;;;;;;;;;;;;;5034340;28;19909;-69
2020/12/05 03:18:18;;;;;;;;;;;;;;;;;;5034226;28;19924;-69
2020/12/05 03:20:44;;;;;;;;;;;;;;;;;;5045070;28;19931;-68
2020/12/05 03:23:10;;;;;;;;;;;;;;;;;;5045645;28;19959;-68
2020/12/05 03:25:36;;;;;;;;;;;;;;;;;;5042621;28;19909;-68
2020/12/05 03:28:02;;;;;;;;;;;;;;;;;;5035023;28;19913;-68
2020/12/05 03:30:28;;;;;;;;;;;;;;;;;;5033687;28;20269;-69
2020/12/05 03:32:55;;;;;;;;;;;;;;;;;;5033484;28;19948;-69
2020/12/05 03:35:22;;;;;;;;;;;;;;;;;;5034738;28;20023;-69
2020/12/05 03:37:48;;;;;;;;;;;;;;;;;;5034561;28;20408;-70
2020/12/05 03:40:14;;;;;;;;;;;;;;;;;;5034131;28;19953;-69
2020/12/05 03:42:40;;;;;;;;;;;;;;;;;;5034613;28;19909;-69
2020/12/05 03:45:05;;;;;;;;;;;;;;;;;;5034491;28;19948;-69
2020/12/05 03:47:31;;;;;;;;;;;;;;;;;;5033110;28;20019;-68
2020/12/05 03:49:57;;;;;;;;;;;;;;;;;;5033226;28;19944;-69
2020/12/05 03:52:23;;;;;;;;;;;;;;;;;;5033143;28;19952;-69
2020/12/05 03:54:49;;;;;;;;;;;;;;;;;;5033927;28;19917;-69
2020/12/05 03:57:15;;;;;;;;;;;;;;;;;;5034578;28;19944;-69
2020/12/05 03:59:41;;;;;;;;;;;;;;;;;;5034097;28;19913;-69
2020/12/05 04:02:07;;;;;;;;;;;;;;;;;;5034357;28;19909;-69
2020/12/05 04:04:33;;;;;;;;;;;;;;;;;;5032663;28;19909;-69
2020/12/05 04:06:59;;;;;;;;;;;;;;;;;;5033341;28;20354;-68
2020/12/05 04:09:25;;;;;;;;;;;;;;;;;;5033776;28;19992;-69
2020/12/05 04:11:50;;;;;;;;;;;;;;;;;;5032831;28;19929;-68
2020/12/05 04:14:16;;;;;;;;;;;;;;;;;;5032411;28;20299;-68
2020/12/05 04:16:42;;;;;;;;;;;;;;;;;;5033028;28;20004;-69
2020/12/05 04:19:08;;;;;;;;;;;;;;;;;;5033993;28;19990;-69
2020/12/05 04:21:34;;;;;;;;;;;;;;;;;;5034016;28;19975;-68
2020/12/05 04:24:00;;;;;;;;;;;;;;;;;;5033094;28;19988;-68
2020/12/05 04:26:26;;;;;;;;;;;;;;;;;;5033693;28;19966;-68
2020/12/05 04:28:52;;;;;;;;;;;;;;;;;;5033572;28;19960;-68
2020/12/05 04:31:18;;;;;;;;;;;;;;;;;;5033489;28;19963;-68
2020/12/05 04:33:44;;;;;;;;;;;;;;;;;;5033865;28;19910;-68
2020/12/05 04:36:10;;;;;;;;;;;;;;;;;;5033477;28;20067;-68
2020/12/05 04:38:35;;;;;;;;;;;;;;;;;;5032970;28;20055;-68
2020/12/05 04:41:01;;;;;;;;;;;;;;;;;;5032784;28;19917;-68
2020/12/05 04:43:27;;;;;;;;;;;;;;;;;;5033347;28;19909;-68
2020/12/05 04:45:53;;;;;;;;;;;;;;;;;;5031665;28;19971;-68
2020/12/05 04:48:19;;;;;;;;;;;;;;;;;;5033206;28;19909;-68
2020/12/05 04:50:45;;;;;;;;;;;;;;;;;;5033096;28;19945;-68
2020/12/05 04:53:11;;;;;;;;;;;;;;;;;;5033128;28;20585;-67
2020/12/05 04:55:38;;;;;;;;;;;;;;;;;;5032974;28;19920;-68
2020/12/05 04:58:04;;;;;;;;;;;;;;;;;;5032922;28;19916;-70
2020/12/05 05:00:30;;;;;;;;;;;;;;;;;;5032020;28;19909;-70
2020/12/05 05:02:55;;;;;;;;;;;;;;;;;;5031494;28;19909;-70
2020/12/05 05:05:23;;;;;;;;;;;;;;;;;;5031391;28;19913;-69
2020/12/05 05:07:49;;;;;;;;;;;;;;;;;;5031309;28;19909;-69
2020/12/05 05:10:17;;;;;;;;;;;;;;;;;;5032802;28;20400;-70
2020/12/05 05:12:43;;;;;;;;;;;;;;;;;;5031684;28;19913;-70
2020/12/05 05:15:09;;;;;;;;;;;;;;;;;;5032453;28;19948;-70
2020/12/05 05:17:35;;;;;;;;;;;;;;;;;;5031265;28;20442;-70
2020/12/05 05:20:01;;;;;;;;;;;;;;;;;;5031278;28;19954;-70
2020/12/05 05:22:27;;;;;;;;;;;;;;;;;;5031214;28;20008;-70
2020/12/05 05:24:53;;;;;;;;;;;;;;;;;;5031862;28;20380;-69
2020/12/05 05:27:19;;;;;;;;;;;;;;;;;;5030660;28;19996;-69
2020/12/05 05:29:45;;;;;;;;;;;;;;;;;;5032161;28;19910;-70
2020/12/05 05:32:15;;;;;;;;;;;;;;;;;;5031252;28;20000;-69
2020/12/05 05:34:41;;;;;;;;;;;;;;;;;;5031268;28;20520;-69
2020/12/05 05:37:07;;;;;;;;;;;;;;;;;;5033103;28;19913;-70
2020/12/05 05:39:33;;;;;;;;;;;;;;;;;;5034450;28;19920;-71
2020/12/05 05:41:59;;;;;;;;;;;;;;;;;;5037200;28;19916;-69
2020/12/05 05:44:25;;;;;;;;;;;;;;;;;;5031616;28;19966;-70
2020/12/05 05:46:51;;;;;;;;;;;;;;;;;;5032184;28;20367;-70
2020/12/05 05:49:17;;;;;;;;;;;;;;;;;;5030871;28;19912;-70
2020/12/05 05:51:43;;;;;;;;;;;;;;;;;;5030919;28;20000;-69
2020/12/05 05:54:09;;;;;;;;;;;;;;;;;;5030688;28;20506;-69
2020/12/05 05:56:35;;;;;;;;;;;;;;;;;;5030744;28;20006;-69
2020/12/05 05:59:01;;;;;;;;;;;;;;;;;;5031451;28;19944;-68
2020/12/05 06:01:27;;;;;;;;;;;;;;;;;;5030551;28;19960;-69
2020/12/05 06:03:53;;;;;;;;;;;;;;;;;;5030808;28;19960;-70
2020/12/05 06:08:44;;;;;;;;;;;;;;;;;;5056992;22;20420;-69
2020/12/05 06:11:10;;;;;;;;;;;;;;;;;;5048428;28;19964;-70
2020/12/05 06:13:36;;;;;;;;;;;;;;;;;;5051947;28;19916;-69
2020/12/05 06:16:02;;;;;;;;;;;;;;;;;;5050583;28;20359;-69
2020/12/05 06:18:28;;;;;;;;;;;;;;;;;;5033871;28;19956;-69
2020/12/05 06:20:54;;;;;;;;;;;;;;;;;;5031196;28;19916;-69
2020/12/05 06:23:20;;;;;;;;;;;;;;;;;;5031631;28;19951;-70
2020/12/05 06:25:46;;;;;;;;;;;;;;;;;;5031925;28;19910;-69
2020/12/05 06:28:12;;;;;;;;;;;;;;;;;;5030497;28;19950;-69
2020/12/05 06:30:38;;;;;;;;;;;;;;;;;;5031796;28;19910;-69
2020/12/05 06:33:04;;;;;;;;;;;;;;;;;;5031607;28;19920;-69
2020/12/05 06:35:30;;;;;;;;;;;;;;;;;;5031574;28;19940;-69
2020/12/05 06:37:56;;;;;;;;;;;;;;;;;;5038621;28;19923;-69
2020/12/05 06:40:22;;;;;;;;;;;;;;;;;;5031910;28;19999;-69
2020/12/05 06:42:48;;;;;;;;;;;;;;;;;;5037357;28;19948;-69
2020/12/05 06:45:14;;;;;;;;;;;;;;;;;;5041257;28;19909;-69
2020/12/05 06:47:39;;;;;;;;;;;;;;;;;;5029949;28;20388;-69
2020/12/05 06:50:05;;;;;;;;;;;;;;;;;;5031607;28;19916;-69
2020/12/05 06:52:31;;;;;;;;;;;;;;;;;;5030940;28;19964;-69
2020/12/05 06:54:57;;;;;;;;;;;;;;;;;;5031758;28;20406;-69
2020/12/05 06:57:23;;;;;;;;;;;;;;;;;;5031214;28;20344;-69
2020/12/05 06:59:49;;;;;;;;;;;;;;;;;;5031784;28;19917;-69
2020/12/05 07:02:15;;;;;;;;;;;;;;;;;;5031788;28;19995;-70
2020/12/05 07:04:41;;;;;;;;;;;;;;;;;;5031808;28;19957;-70
2020/12/05 07:07:07;;;;;;;;;;;;;;;;;;5030094;28;20004;-70
2020/12/05 07:09:33;;;;;;;;;;;;;;;;;;5030085;28;20422;-69
2020/12/05 07:11:59;;;;;;;;;;;;;;;;;;5038117;28;19959;-68
2020/12/05 07:14:25;;;;;;;;;;;;;;;;;;5051155;28;19909;-68
2020/12/05 07:16:51;;;;;;;;;;;;;;;;;;5051210;28;19909;-69
2020/12/05 07:19:17;;;;;;;;;;;;;;;;;;5051031;28;20035;-69
2020/12/05 07:21:46;;;;;;;;;;;;;;;;;;5051532;28;20011;-70
2020/12/05 07:24:11;;;;;;;;;;;;;;;;;;5051206;28;20364;-70
2020/12/05 07:26:37;;;;;;;;;;;;;;;;;;5051396;28;19908;-69
2020/12/05 07:29:03;;;;;;;;;;;;;;;;;;5051808;28;19927;-69
2020/12/05 07:31:29;;;;;;;;;;;;;;;;;;5051472;28;20431;-69
2020/12/05 07:33:55;;;;;;;;;;;;;;;;;;5049955;28;20054;-69
2020/12/05 07:36:21;;;;;;;;;;;;;;;;;;5051446;28;20003;-69
2020/12/05 07:38:47;;;;;;;;;;;;;;;;;;5047617;28;20267;-70
2020/12/05 07:41:13;;;;;;;;;;;;;;;;;;5040754;28;20369;-69
2020/12/05 07:43:39;;;;;;;;;;;;;;;;;;5051045;28;19955;-70
2020/12/05 07:46:05;;;;;;;;;;;;;;;;;;5051046;28;19916;-69
2020/12/05 07:48:30;;;;;;;;;;;;;;;;;;5051361;28;19955;-69
2020/12/05 07:50:56;;;;;;;;;;;;;;;;;;5054404;28;19956;-69
2020/12/05 07:53:22;;;;;;;;;;;;;;;;;;5054553;28;20300;-70
2020/12/05 07:55:48;;;;;;;;;;;;;;;;;;5051986;28;19908;-69
2020/12/05 07:58:15;;;;;;;;;;;;;;;;;;5034108;28;20034;-69
2020/12/05 08:00:41;;;;;;;;;;;;;;;;;;5033910;28;20398;-69
2020/12/05 08:03:06;;;;;;;;;;;;;;;;;;5033618;28;19909;-69
2020/12/05 08:05:32;;;;;;;;;;;;;;;;;;5031449;28;19914;-69
2020/12/05 08:07:58;;;;;;;;;;;;;;;;;;5029715;28;20384;-69
2020/12/05 08:10:24;;;;;;;;;;;;;;;;;;5030319;28;19956;-69
2020/12/05 08:12:50;;;;;;;;;;;;;;;;;;5042229;28;20448;-70
2020/12/05 08:15:16;;;;;;;;;;;;;;;;;;5033869;28;19916;-69
2020/12/05 08:17:42;;;;;;;;;;;;;;;;;;5031872;28;19924;-69
2020/12/05 08:20:08;;;;;;;;;;;;;;;;;;5033098;28;20012;-69
2020/12/05 08:22:33;;;;;;;;;;;;;;;;;;5032137;28;19915;-69
2020/12/05 08:24:59;;;;;;;;;;;;;;;;;;5033445;28;19916;-69
2020/12/05 08:27:25;;;;;;;;;;;;;;;;;;5033201;28;19978;-68
2020/12/05 08:29:51;;;;;;;;;;;;;;;;;;5033536;28;19924;-69
2020/12/05 08:32:17;;;;;;;;;;;;;;;;;;5033213;28;19960;-69
2020/12/05 08:34:43;;;;;;;;;;;;;;;;;;5033287;28;19915;-69
2020/12/05 08:37:09;;;;;;;;;;;;;;;;;;5027902;28;19984;-69
2020/12/05 08:39:35;;;;;;;;;;;;;;;;;;5029741;28;20012;-69
2020/12/05 08:42:01;;;;;;;;;;;;;;;;;;5038624;28;19909;-69
2020/12/05 08:44:27;;;;;;;;;;;;;;;;;;5031102;28;19913;-69
2020/12/05 08:46:53;;;;;;;;;;;;;;;;;;5029543;28;19917;-69
2020/12/05 08:49:18;;;;;;;;;;;;;;;;;;5032617;28;19920;-69
2020/12/05 08:51:44;;;;;;;;;;;;;;;;;;5033598;28;20008;-69
2020/12/05 08:54:10;;;;;;;;;;;;;;;;;;5033387;28;19955;-69
2020/12/05 08:56:36;;;;;;;;;;;;;;;;;;5031571;28;19909;-69
2020/12/05 08:59:02;;;;;;;;;;;;;;;;;;5031658;28;20389;-69
2020/12/05 09:01:28;;;;;;;;;;;;;;;;;;5032993;28;19916;-69
2020/12/05 09:03:54;;;;;;;;;;;;;;;;;;5033066;28;19944;-69
2020/12/05 09:06:20;;;;;;;;;;;;;;;;;;5035327;28;19972;-69
2020/12/05 09:08:46;;;;;;;;;;;;;;;;;;5044850;28;19921;-69
2020/12/05 09:11:12;;;;;;;;;;;;;;;;;;5033167;28;20003;-69
2020/12/05 09:13:37;;;;;;;;;;;;;;;;;;5031792;28;19949;-69
2020/12/05 09:16:03;;;;;;;;;;;;;;;;;;5032675;28;19953;-69
2020/12/05 09:18:29;;;;;;;;;;;;;;;;;;5031293;28;20336;-69
2020/12/05 09:20:55;;;;;;;;;;;;;;;;;;5032821;28;19960;-69
2020/12/05 09:23:21;;;;;;;;;;;;;;;;;;5031377;28;19967;-69
2020/12/05 09:25:47;;;;;;;;;;;;;;;;;;5031723;28;20582;-68
2020/12/05 09:28:13;;;;;;;;;;;;;;;;;;5025626;28;19999;-68
2020/12/05 09:30:39;;;;;;;;;;;;;;;;;;5032423;28;20051;-71
2020/12/05 09:33:05;;;;;;;;;;;;;;;;;;5031106;28;20027;-68
2020/12/05 09:35:31;;;;;;;;;;;;;;;;;;5032595;28;19909;-68
2020/12/05 09:37:58;;;;;;;;;;;;;;;;;;5037020;28;19952;-68
2020/12/05 09:40:24;;;;;;;;;;;;;;;;;;5030380;28;19909;-68
2020/12/05 09:42:50;;;;;;;;;;;;;;;;;;5031255;28;19952;-68
2020/12/05 09:45:16;;;;;;;;;;;;;;;;;;5032209;28;19999;-68
2020/12/05 09:47:42;;;;;;;;;;;;;;;;;;5032035;28;19976;-69
2020/12/05 09:50:08;;;;;;;;;;;;;;;;;;5031833;28;19995;-68
2020/12/05 09:52:34;;;;;;;;;;;;;;;;;;5030471;28;19913;-68
2020/12/05 09:55:00;;;;;;;;;;;;;;;;;;5032360;28;19959;-68
2020/12/05 09:57:26;;;;;;;;;;;;;;;;;;5032161;28;19910;-68
2020/12/05 09:59:52;;;;;;;;;;;;;;;;;;5032090;28;19952;-69
2020/12/05 10:02:17;;;;;;;;;;;;;;;;;;5032260;28;20188;-70
2020/12/05 10:04:43;;;;;;;;;;;;;;;;;;5032538;28;19909;-69
2020/12/05 10:07:09;;;;;;;;;;;;;;;;;;5032019;28;19964;-68
2020/12/05 10:09:35;;;;;;;;;;;;;;;;;;5040833;28;19909;-68
2020/12/05 10:12:01;;;;;;;;;;;;;;;;;;5031479;28;19964;-68
2020/12/05 10:14:27;;;;;;;;;;;;;;;;;;5031639;28;19955;-68
2020/12/05 10:16:53;;;;;;;;;;;;;;;;;;5032168;28;19913;-68
2020/12/05 10:19:19;;;;;;;;;;;;;;;;;;5032435;28;19916;-68
2020/12/05 10:21:46;;;;;;;;;;;;;;;;;;5031382;28;19962;-68
2020/12/05 10:24:12;;;;;;;;;;;;;;;;;;5031797;28;20429;-68
2020/12/05 10:26:38;;;;;;;;;;;;;;;;;;5030075;28;19999;-69
2020/12/05 10:29:04;;;;;;;;;;;;;;;;;;5030914;28;19909;-69
2020/12/05 10:31:30;;;;;;;;;;;;;;;;;;5032024;28;20307;-69
2020/12/05 10:33:56;;;;;;;;;;;;;;;;;;5031854;28;19996;-69
2020/12/05 10:36:22;;;;;;;;;;;;;;;;;;5034418;28;19999;-68
2020/12/05 10:38:48;;;;;;;;;;;;;;;;;;5036961;28;20000;-69
2020/12/05 10:41:13;;;;;;;;;;;;;;;;;;5031508;28;20345;-68
2020/12/05 10:43:39;;;;;;;;;;;;;;;;;;5030224;28;19944;-69
2020/12/05 10:46:05;;;;;;;;;;;;;;;;;;5042832;28;19999;-68
2020/12/05 10:48:31;;;;;;;;;;;;;;;;;;5031058;28;19960;-68
2020/12/05 10:50:57;;;;;;;;;;;;;;;;;;5031423;28;19945;-68
2020/12/05 10:53:23;;;;;;;;;;;;;;;;;;5030995;28;19916;-68
2020/12/05 10:55:49;;;;;;;;;;;;;;;;;;5031390;28;20915;-69
2020/12/05 10:58:15;;;;;;;;;;;;;;;;;;5030583;28;19933;-68
2020/12/05 11:00:41;;;;;;;;;;;;;;;;;;5029869;28;19960;-69
2020/12/05 11:03:07;;;;;;;;;;;;;;;;;;5031134;28;19956;-68
2020/12/05 11:05:33;;;;;;;;;;;;;;;;;;5031608;28;20008;-68
2020/12/05 11:07:58;;;;;;;;;;;;;;;;;;5031276;28;20008;-68
2020/12/05 11:10:24;;;;;;;;;;;;;;;;;;5031981;28;20004;-68
2020/12/05 11:12:50;;;;;;;;;;;;;;;;;;5031440;28;20007;-68
2020/12/05 11:15:16;;;;;;;;;;;;;;;;;;5041588;28;20391;-69
2020/12/05 11:17:42;;;;;;;;;;;;;;;;;;5031191;28;20007;-68
2020/12/05 11:20:08;;;;;;;;;;;;;;;;;;5024590;28;20004;-68
2020/12/05 11:22:34;;;;;;;;;;;;;;;;;;5031103;28;19977;-69
2020/12/05 11:25:00;;;;;;;;;;;;;;;;;;5034433;28;20111;-68
2020/12/05 11:27:26;;;;;;;;;;;;;;;;;;5034871;28;19909;-68
2020/12/05 11:29:52;;;;;;;;;;;;;;;;;;5035069;28;20258;-69
2020/12/05 11:32:17;;;;;;;;;;;;;;;;;;5035255;28;19917;-69
2020/12/05 11:34:43;;;;;;;;;;;;;;;;;;5035006;28;19932;-68
2020/12/05 11:37:09;;;;;;;;;;;;;;;;;;5034645;28;19959;-69
2020/12/05 11:39:35;;;;;;;;;;;;;;;;;;5034730;28;19997;-68
2020/12/05 11:42:01;;;;;;;;;;;;;;;;;;5034552;28;19991;-68
2020/12/05 11:44:27;;;;;;;;;;;;;;;;;;5037041;28;20050;-69
2020/12/05 11:46:53;;;;;;;;;;;;;;;;;;5043854;28;19967;-69
2020/12/05 11:49:19;;;;;;;;;;;;;;;;;;5034525;28;19956;-69
2020/12/05 11:51:45;;;;;;;;;;;;;;;;;;5034468;28;19960;-69
2020/12/05 11:54:11;;;;;;;;;;;;;;;;;;5034755;28;20261;-68
2020/12/05 11:56:36;;;;;;;;;;;;;;;;;;5034467;28;19916;-68
2020/12/05 11:59:02;;;;;;;;;;;;;;;;;;5031062;28;20004;-68
2020/12/05 12:01:28;;;;;;;;;;;;;;;;;;5031506;28;19913;-69
2020/12/05 12:03:54;;;;;;;;;;;;;;;;;;5031447;28;20187;-69
2020/12/05 12:06:20;;;;;;;;;;;;;;;;;;5034822;28;19932;-69
2020/12/05 12:08:46;;;;;;;;;;;;;;;;;;5038462;28;20364;-69
2020/12/05 12:11:12;;;;;;;;;;;;;;;;;;5039892;28;20004;-69
2020/12/05 12:13:38;;;;;;;;;;;;;;;;;;5033492;28;20357;-69
2020/12/05 12:16:04;;;;;;;;;;;;;;;;;;5034456;28;19940;-69
2020/12/05 12:18:30;;;;;;;;;;;;;;;;;;5033086;28;19917;-69
2020/12/05 12:20:56;;;;;;;;;;;;;;;;;;5034648;28;19913;-69
2020/12/05 12:23:22;;;;;;;;;;;;;;;;;;5034207;28;19909;-68
2020/12/05 12:25:48;;;;;;;;;;;;;;;;;;5033635;28;19971;-69
2020/12/05 12:28:13;;;;;;;;;;;;;;;;;;5033224;28;19916;-68
2020/12/05 12:30:39;;;;;;;;;;;;;;;;;;5034027;28;19978;-69
2020/12/05 12:33:05;;;;;;;;;;;;;;;;;;5033713;28;19953;-68
2020/12/05 12:35:31;;;;;;;;;;;;;;;;;;5032857;28;19913;-68
2020/12/05 12:37:57;;;;;;;;;;;;;;;;;;5033716;28;19909;-69
2020/12/05 12:40:23;;;;;;;;;;;;;;;;;;5038851;28;20418;-69
2020/12/05 12:42:49;;;;;;;;;;;;;;;;;;5034428;28;19913;-70
2020/12/05 12:45:19;;;;;;;;;;;;;;;;;;5028824;28;19909;-68
2020/12/05 12:47:58;;;;;;;;;;;;;;;;;;5046096;22;20360;-69
2020/12/05 12:50:24;;;;;;;;;;;;;;;;;;5009287;28;19913;-68
2020/12/05 12:52:50;;;;;;;;;;;;;;;;;;5012534;28;19940;-68
2020/12/05 12:55:16;;;;;;;;;;;;;;;;;;5013661;28;19909;-70
2020/12/05 12:57:46;;;;;;;;;;;;;;;;;;5013267;28;20440;-69
2020/12/05 13:00:11;;;;;;;;;;;;;;;;;;5029595;28;19920;-67
2020/12/05 13:02:37;;;;;;;;;;;;;;;;;;5032348;28;19909;-67
2020/12/05 13:05:03;;;;;;;;;;;;;;;;;;5032836;28;19949;-67
2020/12/05 13:07:29;;;;;;;;;;;;;;;;;;5033172;28;19996;-67
2020/12/05 13:09:55;;;;;;;;;;;;;;;;;;5031174;28;19909;-68
2020/12/05 13:12:21;;;;;;;;;;;;;;;;;;5017407;28;20019;-68
2020/12/05 13:14:47;;;;;;;;;;;;;;;;;;5013022;28;20003;-69
2020/12/05 13:17:13;;;;;;;;;;;;;;;;;;5013176;28;20396;-69
2020/12/05 13:19:39;;;;;;;;;;;;;;;;;;5011341;28;19956;-68
2020/12/05 13:22:05;;;;;;;;;;;;;;;;;;5012932;28;19909;-69
2020/12/05 13:24:31;;;;;;;;;;;;;;;;;;5013128;28;19910;-69
2020/12/05 13:26:57;;;;;;;;;;;;;;;;;;5011601;28;19992;-70
2020/12/05 13:29:22;;;;;;;;;;;;;;;;;;5012822;28;19960;-69
2020/12/05 13:31:48;;;;;;;;;;;;;;;;;;5013140;28;19913;-68
2020/12/05 13:34:14;;;;;;;;;;;;;;;;;;5011940;28;19945;-69
2020/12/05 13:36:40;;;;;;;;;;;;;;;;;;5011363;28;19910;-68
2020/12/05 13:39:06;;;;;;;;;;;;;;;;;;5011217;28;19916;-69
2020/12/05 13:41:33;;;;;;;;;;;;;;;;;;5011279;28;20289;-68
2020/12/05 13:43:59;;;;;;;;;;;;;;;;;;5012800;28;19948;-69
2020/12/05 13:46:25;;;;;;;;;;;;;;;;;;5012070;28;19910;-69
2020/12/05 13:48:51;;;;;;;;;;;;;;;;;;5011041;28;19956;-69
2020/12/05 13:51:17;;;;;;;;;;;;;;;;;;5012548;28;19963;-69
2020/12/05 13:53:43;;;;;;;;;;;;;;;;;;5012003;28;20013;-69
2020/12/05 13:56:09;;;;;;;;;;;;;;;;;;5012727;28;19920;-68
2020/12/05 13:58:35;;;;;;;;;;;;;;;;;;5011225;28;20051;-68
2020/12/05 14:01:01;;;;;;;;;;;;;;;;;;5012566;28;19963;-69
2020/12/05 14:03:27;;;;;;;;;;;;;;;;;;5012606;28;19910;-67
2020/12/05 14:05:53;;;;;;;;;;;;;;;;;;5012619;28;19915;-69
2020/12/05 14:08:19;;;;;;;;;;;;;;;;;;5011949;28;20549;-67
2020/12/05 14:10:45;;;;;;;;;;;;;;;;;;5014523;28;19916;-68
2020/12/05 14:13:11;;;;;;;;;;;;;;;;;;5010860;28;19960;-69
2020/12/05 14:15:37;;;;;;;;;;;;;;;;;;5010907;28;20000;-69
2020/12/05 14:18:03;;;;;;;;;;;;;;;;;;5012000;28;20445;-67
2020/12/05 14:20:29;;;;;;;;;;;;;;;;;;5005510;28;19992;-69
2020/12/05 14:22:54;;;;;;;;;;;;;;;;;;5011757;28;19913;-69
2020/12/05 14:25:20;;;;;;;;;;;;;;;;;;5012818;28;19954;-68
2020/12/05 14:27:46;;;;;;;;;;;;;;;;;;5023658;28;20403;-68
2020/12/05 14:30:12;;;;;;;;;;;;;;;;;;5030905;28;20007;-68
2020/12/05 14:32:38;;;;;;;;;;;;;;;;;;5031071;28;19913;-68
2020/12/05 14:35:04;;;;;;;;;;;;;;;;;;5032407;28;19909;-67
2020/12/05 14:37:30;;;;;;;;;;;;;;;;;;5033691;28;19959;-69
2020/12/05 14:39:56;;;;;;;;;;;;;;;;;;5021320;28;19909;-69
2020/12/05 14:42:22;;;;;;;;;;;;;;;;;;5025307;28;19909;-69
2020/12/05 14:44:48;;;;;;;;;;;;;;;;;;5013289;28;20433;-69
2020/12/05 14:47:14;;;;;;;;;;;;;;;;;;5011559;28;19917;-68
2020/12/05 14:49:40;;;;;;;;;;;;;;;;;;5011782;28;19913;-68
2020/12/05 14:52:06;;;;;;;;;;;;;;;;;;5010246;28;19955;-68
2020/12/05 14:54:31;;;;;;;;;;;;;;;;;;5011985;28;19909;-68
2020/12/05 14:56:57;;;;;;;;;;;;;;;;;;5010487;28;20385;-68
2020/12/05 14:59:23;;;;;;;;;;;;;;;;;;5015365;28;19956;-67
2020/12/05 15:01:51;;;;;;;;;;;;;;;;;;5016103;28;19941;-68
2020/12/05 15:04:17;;;;;;;;;;;;;;;;;;5015793;28;19910;-68
2020/12/05 15:06:43;;;;;;;;;;;;;;;;;;5015692;28;19920;-68
2020/12/05 15:09:09;;;;;;;;;;;;;;;;;;5010693;28;19961;-69
2020/12/05 15:11:34;;;;;;;;;;;;;;;;;;5015372;28;19999;-68
2020/12/05 15:14:02;;;;;;;;;;;;;;;;;;5016207;28;19916;-68
2020/12/05 15:16:28;;;;;;;;;;;;;;;;;;5015516;28;20012;-68
2020/12/05 15:18:54;;;;;;;;;;;;;;;;;;5033458;28;20008;-67
2020/12/05 15:21:20;;;;;;;;;;;;;;;;;;5034195;28;20172;-68
2020/12/05 15:23:45;;;;;;;;;;;;;;;;;;5033895;28;19909;-68
2020/12/05 15:26:11;;;;;;;;;;;;;;;;;;5028467;28;19909;-68
2020/12/05 15:28:37;;;;;;;;;;;;;;;;;;5015128;28;19953;-68
2020/12/05 15:31:03;;;;;;;;;;;;;;;;;;5015014;28;20008;-68
2020/12/05 15:33:29;;;;;;;;;;;;;;;;;;5014865;28;19968;-68
2020/12/05 15:36:01;;;;;;;;;;;;;;;;;;5014598;28;20092;-68
2020/12/05 15:38:27;;;;;;;;;;;;;;;;;;5016053;28;19909;-69
2020/12/05 15:40:53;;;;;;;;;;;;;;;;;;5034012;28;20203;-68
2020/12/05 15:43:19;;;;;;;;;;;;;;;;;;5034115;28;19948;-68
2020/12/05 15:45:44;;;;;;;;;;;;;;;;;;5032620;28;19944;-68
2020/12/05 15:48:10;;;;;;;;;;;;;;;;;;5033674;28;20317;-68
2020/12/05 15:50:36;;;;;;;;;;;;;;;;;;5034073;28;19949;-68
2020/12/05 15:53:02;;;;;;;;;;;;;;;;;;5033340;28;20011;-68
2020/12/05 15:55:28;;;;;;;;;;;;;;;;;;5032640;28;19913;-68
2020/12/05 15:57:54;;;;;;;;;;;;;;;;;;5032052;28;20512;-68
2020/12/05 16:00:20;;;;;;;;;;;;;;;;;;5033500;28;20010;-67
2020/12/05 16:02:46;;;;;;;;;;;;;;;;;;5026692;28;19914;-68
2020/12/05 16:05:12;;;;;;;;;;;;;;;;;;5032330;28;20386;-68
2020/12/05 16:07:38;;;;;;;;;;;;;;;;;;5027451;28;19914;-68
2020/12/05 16:10:03;;;;;;;;;;;;;;;;;;5025764;28;19913;-68
2020/12/05 16:12:29;;;;;;;;;;;;;;;;;;5013928;28;19957;-68
2020/12/05 16:14:55;;;;;;;;;;;;;;;;;;5014298;28;19909;-68
2020/12/05 16:17:21;;;;;;;;;;;;;;;;;;5013824;28;19913;-68
2020/12/05 16:19:47;;;;;;;;;;;;;;;;;;5013965;28;19909;-68
2020/12/05 16:22:13;;;;;;;;;;;;;;;;;;5012796;28;19909;-69
2020/12/05 16:24:39;;;;;;;;;;;;;;;;;;5012659;28;19956;-68
2020/12/05 16:27:05;;;;;;;;;;;;;;;;;;5015232;28;20068;-68
2020/12/05 16:29:32;;;;;;;;;;;;;;;;;;5014129;28;19911;-67
2020/12/05 16:31:58;;;;;;;;;;;;;;;;;;5014069;28;19939;-67
2020/12/05 16:34:24;;;;;;;;;;;;;;;;;;5014151;28;19967;-69
2020/12/05 16:36:50;;;;;;;;;;;;;;;;;;5015409;28;20008;-67
2020/12/05 16:39:16;;;;;;;;;;;;;;;;;;5014912;28;20000;-68